sensor_id;sensor_type;location;lat;lon;timestamp;pressure;altitude;pressure_sealevel;temperature;humidity
22018;BME280;11173;51.050;7.108;2023-05-08T00:06:28;99891.56;;;13.76;77.72
22018;BME280;11173;51.050;7.108;2023-05-08T00:16:28;99895.28;;;13.69;77.64
22018;BME280;11173;51.050;7.108;2023-05-08T00:26:29;99904.50;;;13.69;77.59
22018;BME280;11173;51.050;7.108;2023-05-08T00:36:29;99902.47;;;13.70;77.19
22018;BME280;11173;51.050;7.108;2023-05-08T00:46:31;99910.00;;;13.73;77.46
22018;BME280;11173;51.050;7.108;2023-05-08T00:56:31;99917.25;;;13.70;77.04
22018;BME280;11173;51.050;7.108;2023-05-08T01:06:33;99916.19;;;13.64;77.26
22018;BME280;11173;51.050;7.108;2023-05-08T01:36:46;99909.28;;;13.52;76.97
22018;BME280;11173;51.050;7.108;2023-05-08T01:46:49;99918.16;;;13.47;77.27
22018;BME280;11173;51.050;7.108;2023-05-08T01:56:51;99925.50;;;13.41;77.54
22018;BME280;11173;51.050;7.108;2023-05-08T02:06:51;99930.31;;;13.41;77.66
22018;BME280;11173;51.050;7.108;2023-05-08T02:16:53;99941.50;;;13.41;77.46
22018;BME280;11173;51.050;7.108;2023-05-08T02:26:55;99938.00;;;13.37;77.18
22018;BME280;11173;51.050;7.108;2023-05-08T02:36:56;99938.44;;;13.35;77.52
22018;BME280;11173;51.050;7.108;2023-05-08T02:47:05;99948.06;;;13.34;77.55
22018;BME280;11173;51.050;7.108;2023-05-08T02:57:20;99956.03;;;13.36;77.78
22018;BME280;11173;51.050;7.108;2023-05-08T03:07:23;99959.19;;;13.38;77.96
22018;BME280;11173;51.050;7.108;2023-05-08T03:17:24;99958.47;;;13.33;77.47
22018;BME280;11173;51.050;7.108;2023-05-08T03:27:26;99952.66;;;13.24;77.14
22018;BME280;11173;51.050;7.108;2023-05-08T03:37:27;99950.88;;;13.14;76.86
22018;BME280;11173;51.050;7.108;2023-05-08T03:47:28;99963.44;;;13.06;77.34
22018;BME280;11173;51.050;7.108;2023-05-08T03:57:33;99944.06;;;12.95;77.42
22018;BME280;11173;51.050;7.108;2023-05-08T04:07:36;99937.59;;;12.78;77.80
22018;BME280;11173;51.050;7.108;2023-05-08T04:17:52;99940.50;;;12.71;78.05
22018;BME280;11173;51.050;7.108;2023-05-08T04:27:53;99952.06;;;12.73;78.50
22018;BME280;11173;51.050;7.108;2023-05-08T04:37:55;99967.06;;;12.83;78.75
22018;BME280;11173;51.050;7.108;2023-05-08T04:47:55;99969.38;;;12.88;78.49
22018;BME280;11173;51.050;7.108;2023-05-08T04:57:55;99967.00;;;12.86;78.17
22018;BME280;11173;51.050;7.108;2023-05-08T05:07:56;99972.97;;;12.88;78.42
22018;BME280;11173;51.050;7.108;2023-05-08T05:17:56;99975.25;;;12.93;78.02
22018;BME280;11173;51.050;7.108;2023-05-08T05:27:56;99991.81;;;13.04;78.08
22018;BME280;11173;51.050;7.108;2023-05-08T05:37:56;99991.47;;;13.22;79.45
22018;BME280;11173;51.050;7.108;2023-05-08T05:47:57;100005.66;;;13.31;76.44
22018;BME280;11173;51.050;7.108;2023-05-08T05:57:57;100009.75;;;13.47;75.97
22018;BME280;11173;51.050;7.108;2023-05-08T06:07:57;100019.53;;;13.75;75.57
22018;BME280;11173;51.050;7.108;2023-05-08T06:17:58;100025.13;;;13.95;73.84
22018;BME280;11173;51.050;7.108;2023-05-08T06:27:58;100030.78;;;14.11;73.50
22018;BME280;11173;51.050;7.108;2023-05-08T06:37:58;100022.63;;;14.17;71.59
22018;BME280;11173;51.050;7.108;2023-05-08T06:47:59;100033.25;;;14.26;73.04
22018;BME280;11173;51.050;7.108;2023-05-08T06:57:59;100032.72;;;14.47;75.39
22018;BME280;11173;51.050;7.108;2023-05-08T07:08:00;100023.59;;;14.60;71.77
22018;BME280;11173;51.050;7.108;2023-05-08T07:18:00;100010.53;;;14.69;70.71
22018;BME280;11173;51.050;7.108;2023-05-08T07:28:01;100019.88;;;14.96;75.07
22018;BME280;11173;51.050;7.108;2023-05-08T07:38:01;100040.03;;;15.49;78.20
22018;BME280;11173;51.050;7.108;2023-05-08T07:48:01;100040.25;;;15.97;77.99
22018;BME280;11173;51.050;7.108;2023-05-08T07:58:02;100043.50;;;16.59;77.98
22018;BME280;11173;51.050;7.108;2023-05-08T08:08:02;100051.66;;;17.27;77.08
22018;BME280;11173;51.050;7.108;2023-05-08T08:18:02;100063.16;;;17.86;76.99
22018;BME280;11173;51.050;7.108;2023-05-08T08:28:02;100067.91;;;18.29;72.28
22018;BME280;11173;51.050;7.108;2023-05-08T08:38:03;100065.84;;;18.71;77.25
22018;BME280;11173;51.050;7.108;2023-05-08T08:48:03;100062.91;;;18.93;66.05
22018;BME280;11173;51.050;7.108;2023-05-08T08:58:15;100056.81;;;18.85;58.23
22018;BME280;11173;51.050;7.108;2023-05-08T09:08:17;100060.22;;;18.61;65.30
22018;BME280;11173;51.050;7.108;2023-05-08T09:18:17;100066.28;;;18.51;64.82
22018;BME280;11173;51.050;7.108;2023-05-08T09:28:19;100065.25;;;18.76;71.12
22018;BME280;11173;51.050;7.108;2023-05-08T09:38:53;100066.38;;;18.87;65.61
22018;BME280;11173;51.050;7.108;2023-05-08T09:48:46;100066.06;;;18.95;63.59
22018;BME280;11173;51.050;7.108;2023-05-08T09:58:47;100072.50;;;19.14;70.01
22018;BME280;11173;51.050;7.108;2023-05-08T10:08:47;100077.22;;;19.54;71.64
22018;BME280;11173;51.050;7.108;2023-05-08T10:18:49;100077.50;;;19.74;73.84
22018;BME280;11173;51.050;7.108;2023-05-08T10:28:54;100070.09;;;19.86;62.83
22018;BME280;11173;51.050;7.108;2023-05-08T10:38:59;100060.22;;;19.72;69.16
22018;BME280;11173;51.050;7.108;2023-05-08T10:49:02;100054.13;;;19.64;63.93
22018;BME280;11173;51.050;7.108;2023-05-08T10:59:16;100042.22;;;19.42;55.53
22018;BME280;11173;51.050;7.108;2023-05-08T11:19:59;100048.81;;;19.20;67.06
22018;BME280;11173;51.050;7.108;2023-05-08T11:50:38;100036.84;;;17.80;63.64
22018;BME280;11173;51.050;7.108;2023-05-08T12:00:39;100029.78;;;17.53;64.34
22018;BME280;11173;51.050;7.108;2023-05-08T12:10:40;100027.53;;;17.48;65.54
22018;BME280;11173;51.050;7.108;2023-05-08T12:20:53;100035.47;;;17.40;66.60
22018;BME280;11173;51.050;7.108;2023-05-08T12:30:53;100034.69;;;17.40;68.47
22018;BME280;11173;51.050;7.108;2023-05-08T12:40:54;100030.81;;;17.68;73.33
22018;BME280;11173;51.050;7.108;2023-05-08T12:50:59;100022.78;;;18.29;66.44
22018;BME280;11173;51.050;7.108;2023-05-08T13:01:04;100014.75;;;18.68;65.69
22018;BME280;11173;51.050;7.108;2023-05-08T13:11:05;100017.09;;;18.88;66.20
22018;BME280;11173;51.050;7.108;2023-05-08T13:21:05;100011.78;;;19.00;69.06
22018;BME280;11173;51.050;7.108;2023-05-08T13:31:05;100003.97;;;18.95;60.92
22018;BME280;11173;51.050;7.108;2023-05-08T13:41:06;99988.25;;;18.84;60.12
22018;BME280;11173;51.050;7.108;2023-05-08T13:51:06;99969.44;;;18.54;59.72
22018;BME280;11173;51.050;7.108;2023-05-08T14:01:08;99963.25;;;18.37;60.82
22018;BME280;11173;51.050;7.108;2023-05-08T14:11:08;99956.19;;;18.32;60.60
22018;BME280;11173;51.050;7.108;2023-05-08T14:21:08;99947.59;;;18.36;58.91
22018;BME280;11173;51.050;7.108;2023-05-08T14:31:09;99936.81;;;18.43;57.99
22018;BME280;11173;51.050;7.108;2023-05-08T14:41:09;99942.00;;;18.54;60.03
22018;BME280;11173;51.050;7.108;2023-05-08T14:51:10;99937.00;;;18.95;66.82
22018;BME280;11173;51.050;7.108;2023-05-08T15:01:11;99936.38;;;19.61;72.61
22018;BME280;11173;51.050;7.108;2023-05-08T15:11:12;99938.97;;;20.41;71.89
22018;BME280;11173;51.050;7.108;2023-05-08T15:21:12;99952.44;;;21.09;74.39
22018;BME280;11173;51.050;7.108;2023-05-08T15:31:12;99927.63;;;21.63;73.50
22018;BME280;11173;51.050;7.108;2023-05-08T15:41:12;99925.25;;;21.77;59.46
22018;BME280;11173;51.050;7.108;2023-05-08T15:51:13;99927.19;;;21.85;72.46
22018;BME280;11173;51.050;7.108;2023-05-08T16:01:13;99921.31;;;21.89;71.37
22018;BME280;11173;51.050;7.108;2023-05-08T16:11:14;99913.53;;;21.69;65.11
22018;BME280;11173;51.050;7.108;2023-05-08T16:21:15;99910.03;;;21.30;69.35
22018;BME280;11173;51.050;7.108;2023-05-08T16:31:15;99903.78;;;20.81;69.98
22018;BME280;11173;51.050;7.108;2023-05-08T16:41:16;99902.56;;;20.34;71.25
22018;BME280;11173;51.050;7.108;2023-05-08T16:51:16;99891.81;;;19.90;71.05
22018;BME280;11173;51.050;7.108;2023-05-08T17:01:17;99881.00;;;19.55;71.21
22018;BME280;11173;51.050;7.108;2023-05-08T17:11:17;99901.47;;;19.22;71.22
22018;BME280;11173;51.050;7.108;2023-05-08T17:21:18;99906.75;;;18.77;62.08
22018;BME280;11173;51.050;7.108;2023-05-08T17:31:18;99911.44;;;18.43;70.38
22018;BME280;11173;51.050;7.108;2023-05-08T17:41:19;99907.28;;;18.17;68.40
22018;BME280;11173;51.050;7.108;2023-05-08T17:51:20;99910.84;;;17.89;68.68
22018;BME280;11173;51.050;7.108;2023-05-08T18:01:21;99903.66;;;17.57;67.21
22018;BME280;11173;51.050;7.108;2023-05-08T18:11:22;99915.69;;;17.26;70.03
22018;BME280;11173;51.050;7.108;2023-05-08T18:21:23;99901.41;;;16.89;66.40
22018;BME280;11173;51.050;7.108;2023-05-08T18:31:23;99906.59;;;16.56;66.12
22018;BME280;11173;51.050;7.108;2023-05-08T18:41:24;99909.47;;;16.30;69.82
22018;BME280;11173;51.050;7.108;2023-05-08T18:51:24;99908.09;;;16.00;69.62
22018;BME280;11173;51.050;7.108;2023-05-08T19:01:24;99905.38;;;15.71;69.15
22018;BME280;11173;51.050;7.108;2023-05-08T19:11:25;99887.41;;;15.43;69.82
22018;BME280;11173;51.050;7.108;2023-05-08T19:21:25;99900.00;;;15.25;71.34
22018;BME280;11173;51.050;7.108;2023-05-08T19:31:25;99889.94;;;14.99;71.11
22018;BME280;11173;51.050;7.108;2023-05-08T19:41:25;99910.50;;;14.79;71.84
22018;BME280;11173;51.050;7.108;2023-05-08T19:51:26;99901.00;;;14.60;72.56
22018;BME280;11173;51.050;7.108;2023-05-08T20:01:26;99899.03;;;14.44;72.20
22018;BME280;11173;51.050;7.108;2023-05-08T20:11:26;99891.72;;;14.34;73.13
22018;BME280;11173;51.050;7.108;2023-05-08T20:21:28;99895.03;;;14.29;73.79
22018;BME280;11173;51.050;7.108;2023-05-08T20:31:33;99899.50;;;14.26;74.09
22018;BME280;11173;51.050;7.108;2023-05-08T20:41:33;99905.81;;;14.30;74.70
22018;BME280;11173;51.050;7.108;2023-05-08T20:51:33;99890.31;;;14.26;74.33
22018;BME280;11173;51.050;7.108;2023-05-08T21:01:35;99885.66;;;14.19;74.99
22018;BME280;11173;51.050;7.108;2023-05-08T21:11:35;99876.69;;;14.11;74.67
22018;BME280;11173;51.050;7.108;2023-05-08T21:21:36;99862.00;;;14.07;74.75
22018;BME280;11173;51.050;7.108;2023-05-08T21:31:36;99867.69;;;14.04;74.17
22018;BME280;11173;51.050;7.108;2023-05-08T21:41:36;99853.84;;;13.97;74.06
22018;BME280;11173;51.050;7.108;2023-05-08T21:51:37;99851.69;;;13.88;73.92
22018;BME280;11173;51.050;7.108;2023-05-08T22:01:37;99834.31;;;13.77;74.08
22018;BME280;11173;51.050;7.108;2023-05-08T22:11:37;99841.59;;;13.74;74.60
22018;BME280;11173;51.050;7.108;2023-05-08T22:21:37;99832.56;;;13.66;74.92
22018;BME280;11173;51.050;7.108;2023-05-08T22:31:38;99824.25;;;13.63;75.15
22018;BME280;11173;51.050;7.108;2023-05-08T22:41:38;99819.63;;;13.56;75.50
22018;BME280;11173;51.050;7.108;2023-05-08T22:51:38;99814.97;;;13.49;75.97
22018;BME280;11173;51.050;7.108;2023-05-08T23:01:39;99802.50;;;13.54;75.36
22018;BME280;11173;51.050;7.108;2023-05-08T23:11:39;99794.88;;;13.55;76.25
22018;BME280;11173;51.050;7.108;2023-05-08T23:21:39;99780.59;;;13.65;75.83
22018;BME280;11173;51.050;7.108;2023-05-08T23:31:40;99759.16;;;13.75;75.00
22018;BME280;11173;51.050;7.108;2023-05-08T23:41:40;99759.41;;;13.81;74.90
22018;BME280;11173;51.050;7.108;2023-05-08T23:51:41;99746.75;;;13.76;74.72
